Ancram, New York
Current Conditions -  °F | °C
As of 12:03 AM on Thursday 27 Nov 2014 (Local Time) from KPOU Reporting Station
Light Snow Light Snow  
Wind Chill: 24°   Ceiling: 1600
Heat Index: 33°   Visibility: 4mi
Dew Point: 29°   Wind: 13mph
Humidity: 85%   Direction: 350°N
Pressure: 29.86"   Gusts: 21mph
Location:  42.05°N, 73.64°W
Report Text: KPOU 270503Z 35011G18KT 4SM -SN BR BKN016 OVC030 01/M02 A2986 RMK AO2 P0000 T00061017
Loading
Personal Weather Stations






























Interactive Weather Map New forecast layout! Learn more

10-Day Weather Forecast

Advertisements
Track Severe Weather on mobile